createdAt,value
2023-04-06T00:01:04.153Z,100.00
2023-04-06T00:06:21.870Z,100.00
2023-04-06T00:08:52.773Z,100.00
2023-04-06T00:11:28.692Z,100.00
2023-04-06T00:13:56.682Z,100.00
2023-04-06T00:16:36.567Z,100.00
2023-04-06T00:19:12.838Z,100.00
2023-04-06T00:21:46.282Z,100.00
2023-04-06T00:26:58.707Z,100.00
2023-04-06T00:32:13.830Z,100.00
2023-04-06T00:34:46.481Z,100.00
2023-04-06T00:37:16.827Z,100.00
2023-04-06T00:39:48.771Z,100.00
2023-04-06T00:42:31.666Z,100.00
2023-04-06T00:45:03.487Z,100.00
2023-04-06T00:50:27.072Z,100.00
2023-04-06T00:53:01.306Z,100.00
2023-04-06T00:55:35.746Z,100.00
2023-04-06T00:58:07.869Z,100.00
2023-04-06T01:00:51.827Z,100.00
2023-04-06T01:03:25.691Z,100.00
2023-04-06T01:06:00.154Z,100.00
2023-04-06T01:08:39.486Z,100.00
2023-04-06T01:11:37.859Z,100.00
2023-04-06T01:14:18.457Z,100.00
2023-04-06T01:17:36.771Z,100.00
2023-04-06T01:20:19.337Z,100.00
2023-04-06T01:22:52.259Z,100.00
2023-04-06T01:25:29.972Z,100.00
2023-04-06T01:28:27.174Z,100.00
2023-04-06T01:31:08.861Z,100.00
2023-04-06T01:33:48.847Z,100.00
2023-04-06T01:36:21.067Z,100.00
2023-04-06T01:39:01.256Z,100.00
2023-04-06T01:41:43.016Z,100.00
2023-04-06T01:44:14.859Z,100.00
2023-04-06T01:46:44.818Z,100.00
2023-04-06T01:49:24.034Z,100.00
2023-04-06T01:51:58.833Z,100.00
2023-04-06T01:54:31.338Z,100.00
2023-04-06T01:57:19.461Z,100.00
2023-04-06T02:00:18.803Z,100.00
2023-04-06T02:03:07.614Z,100.00
2023-04-06T02:05:41.037Z,100.00
2023-04-06T02:08:27.110Z,100.00
2023-04-06T02:11:01.094Z,100.00
2023-04-06T02:14:05.655Z,100.00
2023-04-06T02:17:03.215Z,100.00
2023-04-06T02:19:35.399Z,100.00
2023-04-06T02:22:11.489Z,100.00
2023-04-06T02:25:05.321Z,100.00
2023-04-06T02:27:49.916Z,100.00
2023-04-06T02:30:23.814Z,100.00
2023-04-06T02:33:11.163Z,100.00
2023-04-06T02:36:09.503Z,100.00
2023-04-06T02:38:44.971Z,100.00
2023-04-06T02:41:16.920Z,100.00
2023-04-06T02:43:47.107Z,100.00
2023-04-06T02:46:25.927Z,100.00
2023-04-06T02:49:00.136Z,100.00
2023-04-06T02:51:36.291Z,100.00
2023-04-06T02:54:25.884Z,100.00
2023-04-06T02:57:02.141Z,100.00
2023-04-06T03:00:05.300Z,100.00
2023-04-06T03:02:43.063Z,100.00
2023-04-06T03:05:21.239Z,100.00
2023-04-06T03:07:53.556Z,100.00
2023-04-06T03:10:42.713Z,100.00
2023-04-06T03:13:13.788Z,100.00
2023-04-06T03:15:56.394Z,100.00
2023-04-06T03:18:56.191Z,100.00
2023-04-06T03:24:29.622Z,100.00
2023-04-06T03:27:00.259Z,100.00
2023-04-06T03:29:50.887Z,100.00
2023-04-06T03:32:27.403Z,100.00
2023-04-06T03:34:58.048Z,100.00
2023-04-06T03:37:29.676Z,100.00
2023-04-06T03:40:16.520Z,100.00
2023-04-06T03:42:52.949Z,100.00
2023-04-06T03:45:25.546Z,100.00
2023-04-06T03:47:59.008Z,100.00
2023-04-06T03:50:30.000Z,100.00
2023-04-06T03:53:01.370Z,100.00
2023-04-06T03:55:35.751Z,100.00
2023-04-06T03:58:08.929Z,100.00
2023-04-06T04:03:35.014Z,100.00
2023-04-06T04:06:11.182Z,100.00
2023-04-06T04:08:48.776Z,100.00
2023-04-06T04:11:18.818Z,100.00
2023-04-06T04:13:54.097Z,100.00
2023-04-06T04:16:25.282Z,100.00
2023-04-06T04:18:53.400Z,100.00
2023-04-06T04:21:31.335Z,100.00
2023-04-06T04:24:05.326Z,100.00
2023-04-06T04:26:40.000Z,100.00
2023-04-06T04:29:15.856Z,100.00
2023-04-06T04:31:46.773Z,100.00
2023-04-06T04:34:24.264Z,100.00
2023-04-06T04:37:02.838Z,100.00
2023-04-06T04:39:51.234Z,100.00
2023-04-06T04:42:21.582Z,100.00
2023-04-06T04:44:56.968Z,100.00
2023-04-06T04:47:49.635Z,100.00
2023-04-06T04:50:25.537Z,100.00
2023-04-06T04:53:18.160Z,100.00
2023-04-06T04:55:51.522Z,100.00
2023-04-06T04:58:28.555Z,100.00
2023-04-06T05:01:07.208Z,100.00
2023-04-06T05:03:48.230Z,100.00
2023-04-06T05:06:23.332Z,100.00
2023-04-06T05:12:21.954Z,100.00
2023-04-06T05:15:19.477Z,100.00
2023-04-06T05:18:10.606Z,100.00
2023-04-06T05:20:46.566Z,100.00
2023-04-06T05:23:16.740Z,100.00
2023-04-06T05:26:11.325Z,100.00
2023-04-06T05:29:02.993Z,100.00
2023-04-06T05:31:40.180Z,100.00
2023-04-06T05:34:24.532Z,100.00
2023-04-06T05:36:58.543Z,100.00
2023-04-06T05:39:43.877Z,100.00
2023-04-06T05:42:19.201Z,100.00
2023-04-06T05:45:18.776Z,100.00
2023-04-06T05:48:22.741Z,100.00
2023-04-06T05:51:03.323Z,100.00
2023-04-06T05:53:45.118Z,100.00
2023-04-06T05:56:15.415Z,100.00
2023-04-06T05:58:47.070Z,100.00
2023-04-06T06:01:29.193Z,100.00
2023-04-06T06:04:00.201Z,100.00
2023-04-06T06:06:35.104Z,100.00
2023-04-06T06:09:24.626Z,100.00
2023-04-06T06:12:24.650Z,100.00
2023-04-06T06:15:09.801Z,100.00
2023-04-06T06:17:48.978Z,100.00
2023-04-06T06:20:24.419Z,100.00
2023-04-06T06:23:02.008Z,100.00
2023-04-06T06:25:42.575Z,100.00
2023-04-06T06:28:19.854Z,100.00
2023-04-06T06:31:04.818Z,100.00
2023-04-06T06:33:34.948Z,100.00
2023-04-06T06:36:06.266Z,100.00
2023-04-06T06:38:38.386Z,100.00
2023-04-06T06:41:10.140Z,100.00
2023-04-06T06:43:46.238Z,100.00
2023-04-06T06:46:31.997Z,100.00
2023-04-06T06:49:11.102Z,100.00
2023-04-06T06:51:48.879Z,100.00
2023-04-06T06:54:21.993Z,100.00
2023-04-06T06:56:51.837Z,100.00
2023-04-06T06:59:30.932Z,100.00
2023-04-06T07:02:01.931Z,100.00
2023-04-06T07:04:32.796Z,100.00
2023-04-06T07:07:03.316Z,100.00
2023-04-06T07:09:34.463Z,100.00
2023-04-06T07:12:05.923Z,100.00
2023-04-06T07:14:40.060Z,100.00
2023-04-06T07:17:12.714Z,100.00
2023-04-06T07:19:46.709Z,100.00
2023-04-06T07:22:20.453Z,100.00
2023-04-06T07:27:37.740Z,100.00
2023-04-06T07:33:00.654Z,100.00
2023-04-06T07:35:46.666Z,100.00
2023-04-06T07:38:21.592Z,100.00
2023-04-06T07:40:53.434Z,100.00
2023-04-06T07:43:21.404Z,100.00
2023-04-06T07:45:53.230Z,100.00
2023-04-06T07:48:26.445Z,100.00
2023-04-06T07:50:57.295Z,100.00
2023-04-06T07:53:38.422Z,100.00
2023-04-06T07:56:22.858Z,100.00
2023-04-06T07:58:59.846Z,100.00
2023-04-06T08:01:36.726Z,100.00
2023-04-06T08:04:06.457Z,100.00
2023-04-06T08:06:40.155Z,100.00
2023-04-06T08:09:19.656Z,100.00
2023-04-06T08:11:51.197Z,100.00
2023-04-06T08:14:27.603Z,100.00
2023-04-06T08:16:57.955Z,100.00
2023-04-06T08:19:37.044Z,100.00
2023-04-06T08:22:13.199Z,100.00
2023-04-06T08:24:56.585Z,100.00
2023-04-06T08:27:24.548Z,100.00
2023-04-06T08:29:57.229Z,100.00
2023-04-06T08:32:28.254Z,100.00
2023-04-06T08:37:46.974Z,100.00
2023-04-06T08:43:07.633Z,100.00
2023-04-06T08:45:36.624Z,97.56
2023-04-06T08:48:13.154Z,100.00
2023-04-06T08:50:45.525Z,97.47
2023-04-06T08:53:24.085Z,94.59
2023-04-06T08:55:59.515Z,96.67
2023-04-06T08:58:37.615Z,100.00
2023-04-06T09:01:21.115Z,98.14
2023-04-06T09:03:53.915Z,97.06
2023-04-06T09:06:25.183Z,100.00
2023-04-06T09:08:58.957Z,100.00
2023-04-06T09:11:31.441Z,100.00
2023-04-06T09:14:09.410Z,99.95
2023-04-06T09:16:51.219Z,96.58
2023-04-06T09:19:20.279Z,81.75
2023-04-06T09:21:51.712Z,89.42
2023-04-06T09:24:29.913Z,95.12
2023-04-06T09:27:00.242Z,86.00
2023-04-06T09:29:32.028Z,83.63
2023-04-06T09:32:15.279Z,78.95
2023-04-06T09:34:52.433Z,89.06
2023-04-06T09:37:24.114Z,90.98
2023-04-06T09:39:56.044Z,96.38
2023-04-06T09:42:40.887Z,71.09
2023-04-06T09:45:18.334Z,73.92
2023-04-06T09:48:00.040Z,87.15
2023-04-06T09:50:37.059Z,87.24
2023-04-06T09:53:21.189Z,83.83
2023-04-06T09:55:59.138Z,80.79
2023-04-06T09:58:37.408Z,70.23
2023-04-06T10:01:25.605Z,82.29
2023-04-06T10:04:46.646Z,75.02
2023-04-06T10:07:24.474Z,79.84
2023-04-06T10:09:59.845Z,74.09
2023-04-06T10:12:29.116Z,62.01
2023-04-06T10:15:12.813Z,73.74
2023-04-06T10:17:43.247Z,67.96
2023-04-06T10:20:58.711Z,71.55
2023-04-06T10:23:48.079Z,67.06
2023-04-06T10:26:19.576Z,61.98
2023-04-06T10:28:50.547Z,60.07
2023-04-06T10:31:32.763Z,54.43
2023-04-06T10:34:17.359Z,54.68
2023-04-06T10:36:52.113Z,59.04
2023-04-06T10:39:31.594Z,60.20
2023-04-06T10:42:14.269Z,57.96
2023-04-06T10:44:57.541Z,57.56
2023-04-06T10:47:36.476Z,65.71
2023-04-06T10:50:04.529Z,67.95
2023-04-06T10:52:53.446Z,53.16
2023-04-06T10:55:26.613Z,56.88
2023-04-06T11:00:52.420Z,53.40
2023-04-06T11:03:23.218Z,49.79
2023-04-06T11:05:58.132Z,49.26
2023-04-06T11:08:40.925Z,49.96
2023-04-06T11:14:11.517Z,53.88
2023-04-06T11:16:41.391Z,55.07
2023-04-06T11:19:13.443Z,54.60
2023-04-06T11:21:53.444Z,52.72
2023-04-06T11:24:28.820Z,55.97
2023-04-06T11:27:01.962Z,52.67
2023-04-06T11:29:45.200Z,57.38
2023-04-06T11:32:15.399Z,50.48
2023-04-06T11:34:50.958Z,46.77
2023-04-06T11:37:20.060Z,46.60
2023-04-06T11:39:59.548Z,46.21
2023-04-06T11:42:32.111Z,55.78
2023-04-06T11:45:17.067Z,48.55
2023-04-06T11:47:45.436Z,42.86
2023-04-06T11:50:18.768Z,44.54
2023-04-06T11:52:51.989Z,42.92
2023-04-06T11:55:32.382Z,43.44
2023-04-06T11:58:09.712Z,40.40
2023-04-06T12:00:40.967Z,41.86
2023-04-06T12:03:18.600Z,44.01
2023-04-06T12:05:59.706Z,41.00
2023-04-06T12:08:31.681Z,37.89
2023-04-06T12:11:02.259Z,38.33
2023-04-06T12:13:39.770Z,38.60
2023-04-06T12:16:11.195Z,36.96
2023-04-06T12:18:42.891Z,41.16
2023-04-06T12:21:13.976Z,39.51
2023-04-06T12:23:41.963Z,37.92
2023-04-06T12:26:13.072Z,35.39
2023-04-06T12:28:48.859Z,35.80
2023-04-06T12:31:21.083Z,37.19
2023-04-06T12:33:53.991Z,42.26
2023-04-06T12:39:10.425Z,34.86
2023-04-06T12:41:45.843Z,32.11
2023-04-06T12:44:19.582Z,27.80
2023-04-06T12:46:52.201Z,32.58
2023-04-06T12:49:23.168Z,34.45
2023-04-06T12:51:54.972Z,32.36
2023-04-06T12:54:24.166Z,33.29
2023-04-06T12:56:55.843Z,38.06
2023-04-06T12:59:30.190Z,35.30
2023-04-06T13:02:02.090Z,39.00
2023-04-06T13:04:47.095Z,34.25
2023-04-06T13:07:20.757Z,33.61
2023-04-06T13:09:59.218Z,33.31
2023-04-06T13:12:28.648Z,35.67
2023-04-06T13:15:08.832Z,32.40
2023-04-06T13:17:38.912Z,33.60
2023-04-06T13:20:10.832Z,32.59
2023-04-06T13:22:48.769Z,35.57
2023-04-06T13:25:22.517Z,35.83
2023-04-06T13:27:54.771Z,31.60
2023-04-06T13:30:28.651Z,29.57
2023-04-06T13:32:59.124Z,27.88
2023-04-06T13:35:28.294Z,27.40
2023-04-06T13:38:04.024Z,27.26
2023-04-06T13:40:41.087Z,29.55
2023-04-06T13:43:10.378Z,28.46
2023-04-06T13:45:43.996Z,25.63
2023-04-06T13:48:16.325Z,26.82
2023-04-06T13:50:51.411Z,22.92
2023-04-06T13:53:22.278Z,22.94
2023-04-06T13:55:57.361Z,22.25
2023-04-06T13:58:25.531Z,24.64
2023-04-06T14:01:00.273Z,23.24
2023-04-06T14:03:35.175Z,23.81
2023-04-06T14:06:27.045Z,21.17
2023-04-06T14:09:02.372Z,22.67
2023-04-06T14:11:36.148Z,21.67
2023-04-06T14:14:20.079Z,26.43
2023-04-06T14:16:51.139Z,24.08
2023-04-06T14:19:22.119Z,22.26
2023-04-06T14:21:55.329Z,24.71
2023-04-06T14:24:28.728Z,29.70
2023-04-06T14:27:09.731Z,26.47
2023-04-06T14:29:39.908Z,29.08
2023-04-06T14:32:11.376Z,26.00
2023-04-06T14:34:43.012Z,27.92
2023-04-06T14:37:16.686Z,27.02
2023-04-06T14:39:53.831Z,28.21
2023-04-06T14:42:29.746Z,30.29
2023-04-06T14:44:59.020Z,28.51
2023-04-06T14:47:41.687Z,27.17
2023-04-06T14:50:12.563Z,25.99
2023-04-06T14:52:41.403Z,24.63
2023-04-06T14:55:14.238Z,23.48
2023-04-06T14:57:44.310Z,22.89
2023-04-06T15:00:26.653Z,22.02
2023-04-06T15:02:58.245Z,21.65
2023-04-06T15:05:29.104Z,22.18
2023-04-06T15:07:57.594Z,21.90
2023-04-06T15:10:40.182Z,21.13
2023-04-06T15:13:14.996Z,24.51
2023-04-06T15:18:36.136Z,26.60
2023-04-06T15:21:07.234Z,27.91
2023-04-06T15:23:39.195Z,28.72
2023-04-06T15:26:10.080Z,26.21
2023-04-06T15:28:43.145Z,27.85
2023-04-06T15:31:36.531Z,31.99
2023-04-06T15:34:13.140Z,32.76
2023-04-06T15:36:56.137Z,30.23
2023-04-06T15:39:31.620Z,31.24
2023-04-06T15:42:01.914Z,29.30
2023-04-06T15:44:42.840Z,31.84
2023-04-06T15:47:19.575Z,30.78
2023-04-06T15:49:49.936Z,29.68
2023-04-06T15:52:25.164Z,30.34
2023-04-06T15:54:57.448Z,27.19
2023-04-06T15:57:29.914Z,28.48
2023-04-06T16:00:00.132Z,26.93
2023-04-06T16:02:29.658Z,30.35
2023-04-06T16:05:05.555Z,34.33
2023-04-06T16:07:34.340Z,34.44
2023-04-06T16:10:06.284Z,32.70
2023-04-06T16:12:48.902Z,30.86
2023-04-06T16:15:21.218Z,30.55
2023-04-06T16:17:52.962Z,31.47
2023-04-06T16:20:31.851Z,29.21
2023-04-06T16:23:22.255Z,31.69
2023-04-06T16:26:05.533Z,31.57
2023-04-06T16:28:39.925Z,30.34
2023-04-06T16:31:08.171Z,30.05
2023-04-06T16:33:39.138Z,33.23
2023-04-06T16:36:13.400Z,34.40
2023-04-06T16:38:50.157Z,34.90
2023-04-06T16:41:21.564Z,32.57
2023-04-06T16:44:07.406Z,36.12
2023-04-06T16:46:45.308Z,35.60
2023-04-06T16:49:18.380Z,35.32
2023-04-06T16:51:50.045Z,36.63
2023-04-06T16:54:25.284Z,37.63
2023-04-06T16:56:55.170Z,39.70
2023-04-06T16:59:40.919Z,39.64
2023-04-06T17:02:13.475Z,36.19
2023-04-06T17:04:43.755Z,37.89
2023-04-06T17:07:14.193Z,35.93
2023-04-06T17:09:48.636Z,34.85
2023-04-06T17:12:19.201Z,37.50
2023-04-06T17:14:52.747Z,35.77
2023-04-06T17:17:39.976Z,35.54
2023-04-06T17:20:10.350Z,36.28
2023-04-06T17:22:44.898Z,37.32
2023-04-06T17:25:24.222Z,39.68
2023-04-06T17:27:57.878Z,41.21
2023-04-06T17:30:31.478Z,42.48
2023-04-06T17:33:02.507Z,42.47
2023-04-06T17:38:20.740Z,45.38
2023-04-06T17:43:38.385Z,48.07
2023-04-06T17:46:12.258Z,47.93
2023-04-06T17:48:49.162Z,49.39
2023-04-06T17:51:29.395Z,51.54
2023-04-06T17:54:02.882Z,50.67
2023-04-06T17:56:49.431Z,51.46
2023-04-06T17:59:22.731Z,51.29
2023-04-06T18:01:54.389Z,50.58
2023-04-06T18:04:23.966Z,50.31
2023-04-06T18:07:00.145Z,49.02
2023-04-06T18:09:43.344Z,49.77
2023-04-06T18:12:12.776Z,57.21
2023-04-06T18:14:49.029Z,56.58
2023-04-06T18:17:32.135Z,57.81
2023-04-06T18:20:02.985Z,62.08
2023-04-06T18:22:40.541Z,67.23
2023-04-06T18:25:13.541Z,93.48
2023-04-06T18:27:55.049Z,98.37
2023-04-06T18:30:38.757Z,100.00
2023-04-06T18:33:09.888Z,100.00
2023-04-06T18:35:45.129Z,100.00
2023-04-06T18:38:30.645Z,100.00
2023-04-06T18:41:01.178Z,98.30
2023-04-06T18:43:37.491Z,84.92
2023-04-06T18:46:16.171Z,78.66
2023-04-06T18:51:33.417Z,81.91
2023-04-06T18:54:02.363Z,92.32
2023-04-06T18:56:38.963Z,93.49
2023-04-06T18:59:09.370Z,83.15
2023-04-06T19:01:48.360Z,70.30
2023-04-06T19:07:11.543Z,67.66
2023-04-06T19:09:40.185Z,78.66
2023-04-06T19:12:11.517Z,100.00
2023-04-06T19:17:23.006Z,100.00
2023-04-06T19:19:58.267Z,100.00
2023-04-06T19:22:39.081Z,100.00
2023-04-06T19:25:13.551Z,100.00
2023-04-06T19:27:42.061Z,100.00
2023-04-06T19:30:14.080Z,100.00
2023-04-06T19:32:49.261Z,100.00
2023-04-06T19:35:22.110Z,100.00
2023-04-06T19:37:53.935Z,100.00
2023-04-06T19:40:31.361Z,100.00
2023-04-06T19:43:03.732Z,100.00
2023-04-06T19:45:32.756Z,100.00
2023-04-06T19:48:07.200Z,100.00
2023-04-06T19:50:38.530Z,100.00
2023-04-06T19:53:11.830Z,100.00
2023-04-06T19:55:42.268Z,100.00
2023-04-06T19:58:17.478Z,100.00
2023-04-06T20:00:50.093Z,100.00
2023-04-06T20:03:20.261Z,100.00
2023-04-06T20:08:35.303Z,100.00
2023-04-06T20:11:13.885Z,100.00
2023-04-06T20:13:44.567Z,100.00
2023-04-06T20:16:16.255Z,100.00
2023-04-06T20:18:50.220Z,100.00
2023-04-06T20:21:29.061Z,100.00
2023-04-06T20:24:02.773Z,100.00
2023-04-06T20:26:33.840Z,100.00
2023-04-06T20:29:04.282Z,100.00
2023-04-06T20:31:36.069Z,100.00
2023-04-06T20:34:08.594Z,100.00
2023-04-06T20:36:47.180Z,100.00
2023-04-06T20:39:24.501Z,100.00
2023-04-06T20:41:58.105Z,100.00
2023-04-06T20:44:39.929Z,100.00
2023-04-06T20:47:10.184Z,100.00
2023-04-06T20:49:52.712Z,100.00
2023-04-06T20:52:24.296Z,100.00
2023-04-06T20:54:55.886Z,100.00
2023-04-06T20:57:35.966Z,100.00
2023-04-06T21:00:11.487Z,100.00
2023-04-06T21:02:43.481Z,100.00
2023-04-06T21:05:14.793Z,100.00
2023-04-06T21:07:48.530Z,100.00
2023-04-06T21:10:17.719Z,100.00
2023-04-06T21:13:01.551Z,100.00
2023-04-06T21:15:46.268Z,100.00
2023-04-06T21:18:17.173Z,100.00
2023-04-06T21:21:06.875Z,100.00
2023-04-06T21:23:38.490Z,100.00
2023-04-06T21:26:19.967Z,100.00
2023-04-06T21:28:56.321Z,100.00
2023-04-06T21:31:38.829Z,100.00
2023-04-06T21:34:19.680Z,100.00
2023-04-06T21:36:56.030Z,100.00
2023-04-06T21:39:29.808Z,100.00
2023-04-06T21:42:00.771Z,100.00
2023-04-06T21:44:40.683Z,100.00
2023-04-06T21:47:17.623Z,100.00
2023-04-06T21:49:50.894Z,100.00
2023-04-06T21:55:08.976Z,100.00
2023-04-06T21:57:40.912Z,100.00
2023-04-06T22:00:12.094Z,100.00
2023-04-06T22:02:46.446Z,100.00
2023-04-06T22:05:26.255Z,100.00
2023-04-06T22:08:01.561Z,100.00
2023-04-06T22:10:31.399Z,100.00
2023-04-06T22:13:01.676Z,100.00
2023-04-06T22:15:39.549Z,100.00
2023-04-06T22:18:12.630Z,100.00
2023-04-06T22:21:05.696Z,100.00
2023-04-06T22:23:43.141Z,100.00
2023-04-06T22:26:14.648Z,100.00
2023-04-06T22:28:50.868Z,100.00
2023-04-06T22:34:04.464Z,100.00
2023-04-06T22:36:38.160Z,100.00
2023-04-06T22:39:12.148Z,100.00
2023-04-06T22:41:43.615Z,100.00
2023-04-06T22:44:20.133Z,100.00
2023-04-06T22:47:02.853Z,100.00
2023-04-06T22:49:37.056Z,100.00
2023-04-06T22:52:13.555Z,100.00
2023-04-06T22:54:48.443Z,100.00
2023-04-06T23:00:05.987Z,100.00
2023-04-06T23:02:36.557Z,100.00
2023-04-06T23:05:17.084Z,100.00
2023-04-06T23:08:00.673Z,100.00
2023-04-06T23:10:34.358Z,100.00
2023-04-06T23:13:14.489Z,100.00
2023-04-06T23:15:44.950Z,100.00
2023-04-06T23:18:18.534Z,100.00
2023-04-06T23:20:51.785Z,100.00
2023-04-06T23:23:21.765Z,100.00
2023-04-06T23:25:52.299Z,100.00
2023-04-06T23:28:21.522Z,100.00
2023-04-06T23:30:52.721Z,100.00
2023-04-06T23:33:26.561Z,100.00
2023-04-06T23:35:57.432Z,100.00
2023-04-06T23:38:40.082Z,100.00
2023-04-06T23:41:17.682Z,100.00
2023-04-06T23:43:51.650Z,100.00
2023-04-06T23:46:24.975Z,100.00
2023-04-06T23:48:56.517Z,100.00
2023-04-06T23:51:27.688Z,100.00
2023-04-06T23:53:58.202Z,100.00
2023-04-06T23:56:32.041Z,100.00
2023-04-06T23:59:05.750Z,100.00
